Alhaurin el Grande, Spain
Current Conditions -  °F | °C
As of 7:00 AM on Sunday 23 Nov 2014 (Local Time) from LEMG Reporting Station
Clear Clear  
Wind Chill: 64°   Ceiling: Unl
Heat Index: 64°   Visibility: 6mi
Dew Point: 57°   Wind: 12mph
Humidity: 77%   Direction: 80°E
Pressure: 29.77"   Gusts: NA
Location:  36.64°N, 4.69°W
Report Text: LEMG 230600Z 08010KT 050V140 CAVOK 18/14 Q1008 NOSIG
Loading
Personal Weather Stations






























Interactive Weather Map New forecast layout! Learn more

10-Day Weather Forecast

Advertisements
Track Severe Weather on mobile